sensor_id;sensor_type;location;lat;lon;timestamp;temperature;humidity
27671;DHT22;15077;49.704;9.908;2023-07-16T00:01:47;25.70;62.00
27671;DHT22;15077;49.704;9.908;2023-07-16T00:04:13;25.70;62.00
27671;DHT22;15077;49.704;9.908;2023-07-16T00:06:39;25.60;62.20
27671;DHT22;15077;49.704;9.908;2023-07-16T00:09:05;25.60;62.40
27671;DHT22;15077;49.704;9.908;2023-07-16T00:11:31;25.50;62.80
27671;DHT22;15077;49.704;9.908;2023-07-16T00:13:57;25.50;63.20
27671;DHT22;15077;49.704;9.908;2023-07-16T00:16:23;25.40;63.50
27671;DHT22;15077;49.704;9.908;2023-07-16T00:18:51;25.40;63.90
27671;DHT22;15077;49.704;9.908;2023-07-16T00:21:17;25.30;63.90
27671;DHT22;15077;49.704;9.908;2023-07-16T00:23:43;25.20;65.10
27671;DHT22;15077;49.704;9.908;2023-07-16T00:26:10;25.10;64.40
27671;DHT22;15077;49.704;9.908;2023-07-16T00:28:37;25.00;64.40
27671;DHT22;15077;49.704;9.908;2023-07-16T00:31:03;25.00;64.30
27671;DHT22;15077;49.704;9.908;2023-07-16T00:33:30;24.90;64.20
27671;DHT22;15077;49.704;9.908;2023-07-16T00:35:55;24.90;64.10
27671;DHT22;15077;49.704;9.908;2023-07-16T00:38:22;24.90;64.40
27671;DHT22;15077;49.704;9.908;2023-07-16T00:40:49;24.80;64.30
27671;DHT22;15077;49.704;9.908;2023-07-16T00:43:15;24.80;64.20
27671;DHT22;15077;49.704;9.908;2023-07-16T00:45:42;24.80;64.20
27671;DHT22;15077;49.704;9.908;2023-07-16T00:48:11;24.80;64.10
27671;DHT22;15077;49.704;9.908;2023-07-16T00:50:38;24.80;64.10
27671;DHT22;15077;49.704;9.908;2023-07-16T00:53:06;24.80;64.40
27671;DHT22;15077;49.704;9.908;2023-07-16T00:55:34;24.80;64.10
27671;DHT22;15077;49.704;9.908;2023-07-16T00:58:05;24.80;64.40
27671;DHT22;15077;49.704;9.908;2023-07-16T01:00:39;24.80;64.40
27671;DHT22;15077;49.704;9.908;2023-07-16T01:03:08;24.80;64.60
27671;DHT22;15077;49.704;9.908;2023-07-16T01:08:32;24.80;64.50
27671;DHT22;15077;49.704;9.908;2023-07-16T01:11:09;24.70;64.50
27671;DHT22;15077;49.704;9.908;2023-07-16T01:13:35;24.70;64.30
27671;DHT22;15077;49.704;9.908;2023-07-16T01:16:02;24.70;64.30
27671;DHT22;15077;49.704;9.908;2023-07-16T01:18:28;24.70;64.40
27671;DHT22;15077;49.704;9.908;2023-07-16T01:20:53;24.70;64.40
27671;DHT22;15077;49.704;9.908;2023-07-16T01:26:18;24.70;64.60
27671;DHT22;15077;49.704;9.908;2023-07-16T01:29:20;24.60;64.40
27671;DHT22;15077;49.704;9.908;2023-07-16T01:31:59;24.70;64.70
27671;DHT22;15077;49.704;9.908;2023-07-16T01:34:29;24.70;64.60
27671;DHT22;15077;49.704;9.908;2023-07-16T01:36:59;24.60;64.60
27671;DHT22;15077;49.704;9.908;2023-07-16T01:39:26;24.70;64.20
27671;DHT22;15077;49.704;9.908;2023-07-16T01:41:52;24.60;64.40
27671;DHT22;15077;49.704;9.908;2023-07-16T01:44:18;24.60;64.50
27671;DHT22;15077;49.704;9.908;2023-07-16T01:46:44;24.50;64.20
27671;DHT22;15077;49.704;9.908;2023-07-16T01:49:13;24.50;64.60
27671;DHT22;15077;49.704;9.908;2023-07-16T01:51:39;24.50;64.60
27671;DHT22;15077;49.704;9.908;2023-07-16T01:54:04;24.50;65.00
27671;DHT22;15077;49.704;9.908;2023-07-16T01:56:30;24.50;64.80
27671;DHT22;15077;49.704;9.908;2023-07-16T01:58:56;24.50;65.00
27671;DHT22;15077;49.704;9.908;2023-07-16T02:01:22;24.50;65.40
27671;DHT22;15077;49.704;9.908;2023-07-16T02:03:47;24.50;65.40
27671;DHT22;15077;49.704;9.908;2023-07-16T02:06:13;24.40;65.20
27671;DHT22;15077;49.704;9.908;2023-07-16T02:08:39;24.40;65.70
27671;DHT22;15077;49.704;9.908;2023-07-16T02:11:05;24.40;65.70
27671;DHT22;15077;49.704;9.908;2023-07-16T02:13:30;24.30;65.60
27671;DHT22;15077;49.704;9.908;2023-07-16T02:15:56;24.30;65.50
27671;DHT22;15077;49.704;9.908;2023-07-16T02:18:25;24.20;65.60
27671;DHT22;15077;49.704;9.908;2023-07-16T02:20:51;24.10;65.60
27671;DHT22;15077;49.704;9.908;2023-07-16T02:23:17;24.00;65.70
27671;DHT22;15077;49.704;9.908;2023-07-16T02:25:43;24.00;65.80
27671;DHT22;15077;49.704;9.908;2023-07-16T02:28:09;23.90;65.80
27671;DHT22;15077;49.704;9.908;2023-07-16T02:30:35;23.80;66.10
27671;DHT22;15077;49.704;9.908;2023-07-16T02:33:00;23.80;66.00
27671;DHT22;15077;49.704;9.908;2023-07-16T02:35:26;23.80;66.00
27671;DHT22;15077;49.704;9.908;2023-07-16T02:37:55;23.70;66.00
27671;DHT22;15077;49.704;9.908;2023-07-16T02:40:21;23.70;66.20
27671;DHT22;15077;49.704;9.908;2023-07-16T02:42:47;23.70;66.30
27671;DHT22;15077;49.704;9.908;2023-07-16T02:45:13;23.70;66.30
27671;DHT22;15077;49.704;9.908;2023-07-16T02:47:38;23.60;66.30
27671;DHT22;15077;49.704;9.908;2023-07-16T02:50:05;23.60;66.40
27671;DHT22;15077;49.704;9.908;2023-07-16T02:52:31;23.60;66.50
27671;DHT22;15077;49.704;9.908;2023-07-16T02:54:57;23.60;66.40
27671;DHT22;15077;49.704;9.908;2023-07-16T02:57:23;23.50;66.40
27671;DHT22;15077;49.704;9.908;2023-07-16T02:59:48;23.50;66.40
27671;DHT22;15077;49.704;9.908;2023-07-16T03:02:17;23.50;66.30
27671;DHT22;15077;49.704;9.908;2023-07-16T03:04:43;23.40;66.40
27671;DHT22;15077;49.704;9.908;2023-07-16T03:07:09;23.40;66.20
27671;DHT22;15077;49.704;9.908;2023-07-16T03:09:35;23.40;66.10
27671;DHT22;15077;49.704;9.908;2023-07-16T03:12:01;23.30;66.20
27671;DHT22;15077;49.704;9.908;2023-07-16T03:14:26;23.30;66.20
27671;DHT22;15077;49.704;9.908;2023-07-16T03:16:52;23.30;66.20
27671;DHT22;15077;49.704;9.908;2023-07-16T03:19:18;23.20;66.10
27671;DHT22;15077;49.704;9.908;2023-07-16T03:21:44;23.20;66.30
27671;DHT22;15077;49.704;9.908;2023-07-16T03:24:11;23.10;66.20
27671;DHT22;15077;49.704;9.908;2023-07-16T03:26:37;23.10;66.10
27671;DHT22;15077;49.704;9.908;2023-07-16T03:29:03;23.10;66.40
27671;DHT22;15077;49.704;9.908;2023-07-16T03:31:29;23.10;66.40
27671;DHT22;15077;49.704;9.908;2023-07-16T03:33:55;23.10;66.40
27671;DHT22;15077;49.704;9.908;2023-07-16T03:36:20;23.10;66.50
27671;DHT22;15077;49.704;9.908;2023-07-16T03:38:46;23.10;66.50
27671;DHT22;15077;49.704;9.908;2023-07-16T03:41:12;23.10;66.40
27671;DHT22;15077;49.704;9.908;2023-07-16T03:43:38;23.00;66.30
27671;DHT22;15077;49.704;9.908;2023-07-16T03:46:04;23.10;66.50
27671;DHT22;15077;49.704;9.908;2023-07-16T03:48:32;23.10;66.40
27671;DHT22;15077;49.704;9.908;2023-07-16T03:50:58;23.00;66.90
27671;DHT22;15077;49.704;9.908;2023-07-16T03:53:24;23.00;66.40
27671;DHT22;15077;49.704;9.908;2023-07-16T03:55:50;23.00;66.40
27671;DHT22;15077;49.704;9.908;2023-07-16T03:58:15;23.00;66.50
27671;DHT22;15077;49.704;9.908;2023-07-16T04:00:44;23.00;66.50
27671;DHT22;15077;49.704;9.908;2023-07-16T04:03:10;23.00;66.80
27671;DHT22;15077;49.704;9.908;2023-07-16T04:05:38;23.00;66.70
27671;DHT22;15077;49.704;9.908;2023-07-16T04:08:03;22.90;66.60
27671;DHT22;15077;49.704;9.908;2023-07-16T04:10:29;22.90;66.80
27671;DHT22;15077;49.704;9.908;2023-07-16T04:12:55;22.90;66.80
27671;DHT22;15077;49.704;9.908;2023-07-16T04:15:20;22.90;66.70
27671;DHT22;15077;49.704;9.908;2023-07-16T04:17:47;22.90;66.90
27671;DHT22;15077;49.704;9.908;2023-07-16T04:20:14;22.80;66.90
27671;DHT22;15077;49.704;9.908;2023-07-16T04:22:40;22.90;67.00
27671;DHT22;15077;49.704;9.908;2023-07-16T04:25:06;22.80;67.00
27671;DHT22;15077;49.704;9.908;2023-07-16T04:27:32;22.80;67.00
27671;DHT22;15077;49.704;9.908;2023-07-16T04:29:57;22.80;66.90
27671;DHT22;15077;49.704;9.908;2023-07-16T04:32:23;22.80;67.10
27671;DHT22;15077;49.704;9.908;2023-07-16T04:34:49;22.80;67.10
27671;DHT22;15077;49.704;9.908;2023-07-16T04:37:15;22.80;66.90
27671;DHT22;15077;49.704;9.908;2023-07-16T04:39:41;22.80;66.90
27671;DHT22;15077;49.704;9.908;2023-07-16T04:42:06;22.70;67.10
27671;DHT22;15077;49.704;9.908;2023-07-16T04:44:32;22.70;67.00
27671;DHT22;15077;49.704;9.908;2023-07-16T04:46:58;22.70;67.00
27671;DHT22;15077;49.704;9.908;2023-07-16T04:49:23;22.70;67.00
27671;DHT22;15077;49.704;9.908;2023-07-16T04:51:49;22.70;67.00
27671;DHT22;15077;49.704;9.908;2023-07-16T04:54:15;22.70;67.00
27671;DHT22;15077;49.704;9.908;2023-07-16T04:56:40;22.70;67.10
27671;DHT22;15077;49.704;9.908;2023-07-16T04:59:06;22.70;67.10
27671;DHT22;15077;49.704;9.908;2023-07-16T05:01:32;22.70;67.00
27671;DHT22;15077;49.704;9.908;2023-07-16T05:03:58;22.60;67.20
27671;DHT22;15077;49.704;9.908;2023-07-16T05:06:23;22.70;67.10
27671;DHT22;15077;49.704;9.908;2023-07-16T05:08:49;22.60;67.30
27671;DHT22;15077;49.704;9.908;2023-07-16T05:11:15;22.50;67.30
27671;DHT22;15077;49.704;9.908;2023-07-16T05:13:40;22.50;67.40
27671;DHT22;15077;49.704;9.908;2023-07-16T05:16:06;22.50;67.50
27671;DHT22;15077;49.704;9.908;2023-07-16T05:18:32;22.50;67.40
27671;DHT22;15077;49.704;9.908;2023-07-16T05:20:57;22.50;67.40
27671;DHT22;15077;49.704;9.908;2023-07-16T05:23:23;22.40;67.30
27671;DHT22;15077;49.704;9.908;2023-07-16T05:25:49;22.40;67.30
27671;DHT22;15077;49.704;9.908;2023-07-16T05:28:16;22.40;67.40
27671;DHT22;15077;49.704;9.908;2023-07-16T05:30:43;22.30;67.50
27671;DHT22;15077;49.704;9.908;2023-07-16T05:33:10;22.30;67.50
27671;DHT22;15077;49.704;9.908;2023-07-16T05:35:36;22.20;67.50
27671;DHT22;15077;49.704;9.908;2023-07-16T05:38:02;22.20;67.60
27671;DHT22;15077;49.704;9.908;2023-07-16T05:40:27;22.20;67.50
27671;DHT22;15077;49.704;9.908;2023-07-16T05:42:54;22.20;67.70
27671;DHT22;15077;49.704;9.908;2023-07-16T05:45:20;22.20;67.70
27671;DHT22;15077;49.704;9.908;2023-07-16T05:47:45;22.10;67.70
27671;DHT22;15077;49.704;9.908;2023-07-16T05:50:11;22.10;67.70
27671;DHT22;15077;49.704;9.908;2023-07-16T05:52:37;22.10;67.80
27671;DHT22;15077;49.704;9.908;2023-07-16T05:55:03;22.10;67.80
27671;DHT22;15077;49.704;9.908;2023-07-16T05:57:29;22.10;67.80
27671;DHT22;15077;49.704;9.908;2023-07-16T05:59:54;22.00;67.70
27671;DHT22;15077;49.704;9.908;2023-07-16T06:02:20;22.00;67.80
27671;DHT22;15077;49.704;9.908;2023-07-16T06:04:46;22.00;68.00
27671;DHT22;15077;49.704;9.908;2023-07-16T06:07:14;21.90;67.80
27671;DHT22;15077;49.704;9.908;2023-07-16T06:09:41;21.90;67.90
27671;DHT22;15077;49.704;9.908;2023-07-16T06:12:07;21.90;68.10
27671;DHT22;15077;49.704;9.908;2023-07-16T06:14:33;21.80;68.10
27671;DHT22;15077;49.704;9.908;2023-07-16T06:16:58;21.80;68.20
27671;DHT22;15077;49.704;9.908;2023-07-16T06:19:24;21.80;68.20
27671;DHT22;15077;49.704;9.908;2023-07-16T06:21:50;21.80;68.20
27671;DHT22;15077;49.704;9.908;2023-07-16T06:24:15;21.90;68.30
27671;DHT22;15077;49.704;9.908;2023-07-16T06:26:41;21.90;68.60
27671;DHT22;15077;49.704;9.908;2023-07-16T06:29:07;21.90;68.50
27671;DHT22;15077;49.704;9.908;2023-07-16T06:31:33;21.90;68.40
27671;DHT22;15077;49.704;9.908;2023-07-16T06:33:59;21.90;68.10
27671;DHT22;15077;49.704;9.908;2023-07-16T06:36:25;21.90;68.00
27671;DHT22;15077;49.704;9.908;2023-07-16T06:38:50;21.90;67.90
27671;DHT22;15077;49.704;9.908;2023-07-16T06:41:17;21.90;68.20
27671;DHT22;15077;49.704;9.908;2023-07-16T06:43:43;21.90;67.90
27671;DHT22;15077;49.704;9.908;2023-07-16T06:46:09;22.00;67.80
27671;DHT22;15077;49.704;9.908;2023-07-16T06:48:34;22.00;67.60
27671;DHT22;15077;49.704;9.908;2023-07-16T06:51:00;22.00;67.50
27671;DHT22;15077;49.704;9.908;2023-07-16T06:53:26;22.00;67.40
27671;DHT22;15077;49.704;9.908;2023-07-16T06:55:51;22.00;67.20
27671;DHT22;15077;49.704;9.908;2023-07-16T06:58:17;22.00;67.20
27671;DHT22;15077;49.704;9.908;2023-07-16T07:00:43;22.00;67.10
27671;DHT22;15077;49.704;9.908;2023-07-16T07:03:09;22.00;67.20
27671;DHT22;15077;49.704;9.908;2023-07-16T07:05:35;22.00;67.30
27671;DHT22;15077;49.704;9.908;2023-07-16T07:08:03;22.10;67.40
27671;DHT22;15077;49.704;9.908;2023-07-16T07:10:29;22.10;67.40
27671;DHT22;15077;49.704;9.908;2023-07-16T07:12:55;22.10;67.20
27671;DHT22;15077;49.704;9.908;2023-07-16T07:15:20;22.10;67.00
27671;DHT22;15077;49.704;9.908;2023-07-16T07:17:46;22.20;66.60
27671;DHT22;15077;49.704;9.908;2023-07-16T07:20:13;22.20;66.00
27671;DHT22;15077;49.704;9.908;2023-07-16T07:22:39;22.20;66.00
27671;DHT22;15077;49.704;9.908;2023-07-16T07:25:04;22.20;66.00
27671;DHT22;15077;49.704;9.908;2023-07-16T07:27:31;22.10;66.10
27671;DHT22;15077;49.704;9.908;2023-07-16T07:29:57;22.10;65.70
27671;DHT22;15077;49.704;9.908;2023-07-16T07:32:22;22.10;66.00
27671;DHT22;15077;49.704;9.908;2023-07-16T07:34:48;22.10;65.70
27671;DHT22;15077;49.704;9.908;2023-07-16T07:37:14;22.10;65.50
27671;DHT22;15077;49.704;9.908;2023-07-16T07:39:40;22.10;65.40
27671;DHT22;15077;49.704;9.908;2023-07-16T07:42:06;22.10;65.10
27671;DHT22;15077;49.704;9.908;2023-07-16T07:44:32;22.20;64.90
27671;DHT22;15077;49.704;9.908;2023-07-16T07:46:58;22.10;64.90
27671;DHT22;15077;49.704;9.908;2023-07-16T07:49:24;22.10;64.80
27671;DHT22;15077;49.704;9.908;2023-07-16T07:51:50;22.10;64.80
27671;DHT22;15077;49.704;9.908;2023-07-16T07:54:15;22.20;65.10
27671;DHT22;15077;49.704;9.908;2023-07-16T07:56:42;22.20;65.30
27671;DHT22;15077;49.704;9.908;2023-07-16T07:59:07;22.20;65.30
27671;DHT22;15077;49.704;9.908;2023-07-16T08:01:33;22.20;66.00
27671;DHT22;15077;49.704;9.908;2023-07-16T08:03:59;22.20;65.50
27671;DHT22;15077;49.704;9.908;2023-07-16T08:06:25;22.20;65.50
27671;DHT22;15077;49.704;9.908;2023-07-16T08:08:51;22.30;65.10
27671;DHT22;15077;49.704;9.908;2023-07-16T08:11:17;22.30;65.20
27671;DHT22;15077;49.704;9.908;2023-07-16T08:13:43;22.30;65.40
27671;DHT22;15077;49.704;9.908;2023-07-16T08:16:08;22.30;65.10
27671;DHT22;15077;49.704;9.908;2023-07-16T08:18:34;22.40;64.80
27671;DHT22;15077;49.704;9.908;2023-07-16T08:21:00;22.40;64.70
27671;DHT22;15077;49.704;9.908;2023-07-16T08:23:26;22.50;64.60
27671;DHT22;15077;49.704;9.908;2023-07-16T08:25:52;22.60;64.70
27671;DHT22;15077;49.704;9.908;2023-07-16T08:28:18;22.60;65.00
27671;DHT22;15077;49.704;9.908;2023-07-16T08:30:47;22.70;64.50
27671;DHT22;15077;49.704;9.908;2023-07-16T08:33:14;22.80;64.30
27671;DHT22;15077;49.704;9.908;2023-07-16T08:35:40;22.90;64.00
27671;DHT22;15077;49.704;9.908;2023-07-16T08:38:07;23.00;63.10
27671;DHT22;15077;49.704;9.908;2023-07-16T08:40:38;23.10;62.80
27671;DHT22;15077;49.704;9.908;2023-07-16T08:43:06;23.10;62.30
27671;DHT22;15077;49.704;9.908;2023-07-16T08:45:39;23.10;62.60
27671;DHT22;15077;49.704;9.908;2023-07-16T08:48:07;23.20;62.00
27671;DHT22;15077;49.704;9.908;2023-07-16T08:50:35;23.30;62.10
27671;DHT22;15077;49.704;9.908;2023-07-16T08:53:06;23.30;61.20
27671;DHT22;15077;49.704;9.908;2023-07-16T08:55:35;23.40;61.80
27671;DHT22;15077;49.704;9.908;2023-07-16T08:58:04;23.50;61.90
27671;DHT22;15077;49.704;9.908;2023-07-16T09:00:31;23.60;61.80
27671;DHT22;15077;49.704;9.908;2023-07-16T09:02:57;23.60;61.30
27671;DHT22;15077;49.704;9.908;2023-07-16T09:05:23;23.70;62.20
27671;DHT22;15077;49.704;9.908;2023-07-16T09:07:49;23.80;61.60
27671;DHT22;15077;49.704;9.908;2023-07-16T09:10:15;23.90;59.60
27671;DHT22;15077;49.704;9.908;2023-07-16T09:12:43;23.90;59.70
27671;DHT22;15077;49.704;9.908;2023-07-16T09:15:10;24.00;58.40
27671;DHT22;15077;49.704;9.908;2023-07-16T09:17:37;24.10;58.50
27671;DHT22;15077;49.704;9.908;2023-07-16T09:20:04;24.20;58.40
27671;DHT22;15077;49.704;9.908;2023-07-16T09:22:34;24.30;57.70
27671;DHT22;15077;49.704;9.908;2023-07-16T09:25:01;24.30;57.70
27671;DHT22;15077;49.704;9.908;2023-07-16T09:27:31;24.40;57.70
27671;DHT22;15077;49.704;9.908;2023-07-16T09:29:56;24.50;56.80
27671;DHT22;15077;49.704;9.908;2023-07-16T09:32:33;24.60;56.60
27671;DHT22;15077;49.704;9.908;2023-07-16T09:35:16;24.70;56.10
27671;DHT22;15077;49.704;9.908;2023-07-16T09:37:43;24.70;56.40
27671;DHT22;15077;49.704;9.908;2023-07-16T09:40:10;24.80;56.30
27671;DHT22;15077;49.704;9.908;2023-07-16T09:42:38;24.90;56.10
27671;DHT22;15077;49.704;9.908;2023-07-16T09:45:16;25.00;55.70
27671;DHT22;15077;49.704;9.908;2023-07-16T09:47:43;25.00;55.70
27671;DHT22;15077;49.704;9.908;2023-07-16T09:50:11;25.10;55.50
27671;DHT22;15077;49.704;9.908;2023-07-16T09:52:37;25.20;55.40
27671;DHT22;15077;49.704;9.908;2023-07-16T09:55:05;25.30;54.50
27671;DHT22;15077;49.704;9.908;2023-07-16T09:57:37;25.40;53.90
27671;DHT22;15077;49.704;9.908;2023-07-16T10:00:12;25.40;52.50
27671;DHT22;15077;49.704;9.908;2023-07-16T10:02:40;25.50;51.70
27671;DHT22;15077;49.704;9.908;2023-07-16T10:05:23;25.50;53.10
27671;DHT22;15077;49.704;9.908;2023-07-16T10:07:56;25.60;52.70
27671;DHT22;15077;49.704;9.908;2023-07-16T10:10:42;25.60;53.00
27671;DHT22;15077;49.704;9.908;2023-07-16T10:13:12;25.70;52.80
27671;DHT22;15077;49.704;9.908;2023-07-16T10:15:39;25.70;52.40
27671;DHT22;15077;49.704;9.908;2023-07-16T10:18:31;25.80;52.40
27671;DHT22;15077;49.704;9.908;2023-07-16T10:21:07;25.80;52.90
27671;DHT22;15077;49.704;9.908;2023-07-16T10:23:44;25.80;52.70
27671;DHT22;15077;49.704;9.908;2023-07-16T10:26:11;25.90;52.00
27671;DHT22;15077;49.704;9.908;2023-07-16T10:28:38;26.00;52.30
27671;DHT22;15077;49.704;9.908;2023-07-16T10:31:05;26.00;52.50
27671;DHT22;15077;49.704;9.908;2023-07-16T10:33:33;26.10;52.80
27671;DHT22;15077;49.704;9.908;2023-07-16T10:35:59;26.10;52.00
27671;DHT22;15077;49.704;9.908;2023-07-16T10:38:25;26.20;51.50
27671;DHT22;15077;49.704;9.908;2023-07-16T10:40:51;26.20;51.30
27671;DHT22;15077;49.704;9.908;2023-07-16T10:43:17;26.20;51.00
27671;DHT22;15077;49.704;9.908;2023-07-16T10:45:43;26.30;51.40
27671;DHT22;15077;49.704;9.908;2023-07-16T10:48:12;26.30;51.50
27671;DHT22;15077;49.704;9.908;2023-07-16T10:50:38;26.30;51.50
27671;DHT22;15077;49.704;9.908;2023-07-16T10:53:04;26.40;50.70
27671;DHT22;15077;49.704;9.908;2023-07-16T10:55:30;26.40;51.30
27671;DHT22;15077;49.704;9.908;2023-07-16T10:57:57;26.50;50.70
27671;DHT22;15077;49.704;9.908;2023-07-16T11:00:23;26.60;51.60
27671;DHT22;15077;49.704;9.908;2023-07-16T11:02:52;26.60;50.20
27671;DHT22;15077;49.704;9.908;2023-07-16T11:05:18;26.60;50.90
27671;DHT22;15077;49.704;9.908;2023-07-16T11:07:48;26.60;51.20
27671;DHT22;15077;49.704;9.908;2023-07-16T11:10:18;26.60;50.60
27671;DHT22;15077;49.704;9.908;2023-07-16T11:12:44;26.70;50.50
27671;DHT22;15077;49.704;9.908;2023-07-16T11:15:10;26.70;50.70
27671;DHT22;15077;49.704;9.908;2023-07-16T11:17:39;26.80;50.40
27671;DHT22;15077;49.704;9.908;2023-07-16T11:20:08;26.80;49.90
27671;DHT22;15077;49.704;9.908;2023-07-16T11:22:37;26.80;50.00
27671;DHT22;15077;49.704;9.908;2023-07-16T11:25:10;26.90;50.20
27671;DHT22;15077;49.704;9.908;2023-07-16T11:27:41;26.90;50.20
27671;DHT22;15077;49.704;9.908;2023-07-16T11:30:07;26.90;49.00
27671;DHT22;15077;49.704;9.908;2023-07-16T11:32:37;26.90;49.90
27671;DHT22;15077;49.704;9.908;2023-07-16T11:35:16;27.00;49.90
27671;DHT22;15077;49.704;9.908;2023-07-16T11:37:44;27.10;49.60
27671;DHT22;15077;49.704;9.908;2023-07-16T11:40:15;27.10;49.80
27671;DHT22;15077;49.704;9.908;2023-07-16T11:42:42;27.20;49.70
27671;DHT22;15077;49.704;9.908;2023-07-16T11:45:24;27.30;49.90
27671;DHT22;15077;49.704;9.908;2023-07-16T11:47:53;27.40;49.10
27671;DHT22;15077;49.704;9.908;2023-07-16T11:50:19;27.40;48.90
27671;DHT22;15077;49.704;9.908;2023-07-16T11:52:55;27.40;48.90
27671;DHT22;15077;49.704;9.908;2023-07-16T11:55:24;27.50;47.90
27671;DHT22;15077;49.704;9.908;2023-07-16T11:57:51;27.50;48.70
27671;DHT22;15077;49.704;9.908;2023-07-16T12:00:17;27.50;48.00
27671;DHT22;15077;49.704;9.908;2023-07-16T12:02:44;27.40;47.90
27671;DHT22;15077;49.704;9.908;2023-07-16T12:05:17;27.40;48.10
27671;DHT22;15077;49.704;9.908;2023-07-16T12:07:49;27.50;48.50
27671;DHT22;15077;49.704;9.908;2023-07-16T12:10:15;27.50;47.80
27671;DHT22;15077;49.704;9.908;2023-07-16T12:12:41;27.50;47.40
27671;DHT22;15077;49.704;9.908;2023-07-16T12:15:07;27.60;47.90
27671;DHT22;15077;49.704;9.908;2023-07-16T12:17:34;27.60;47.70
27671;DHT22;15077;49.704;9.908;2023-07-16T12:20:00;27.70;47.20
27671;DHT22;15077;49.704;9.908;2023-07-16T12:22:28;27.70;46.40
27671;DHT22;15077;49.704;9.908;2023-07-16T12:24:54;27.80;46.10
27671;DHT22;15077;49.704;9.908;2023-07-16T12:27:20;27.80;47.50
27671;DHT22;15077;49.704;9.908;2023-07-16T12:29:46;27.80;46.50
27671;DHT22;15077;49.704;9.908;2023-07-16T12:32:13;27.90;46.40
27671;DHT22;15077;49.704;9.908;2023-07-16T12:34:40;27.90;45.00
27671;DHT22;15077;49.704;9.908;2023-07-16T12:37:05;27.90;45.80
27671;DHT22;15077;49.704;9.908;2023-07-16T12:39:32;28.00;45.70
27671;DHT22;15077;49.704;9.908;2023-07-16T12:41:58;28.00;46.20
27671;DHT22;15077;49.704;9.908;2023-07-16T12:44:24;28.00;45.70
27671;DHT22;15077;49.704;9.908;2023-07-16T12:46:50;28.10;46.20
27671;DHT22;15077;49.704;9.908;2023-07-16T12:49:15;28.10;46.30
27671;DHT22;15077;49.704;9.908;2023-07-16T12:51:41;28.20;45.50
27671;DHT22;15077;49.704;9.908;2023-07-16T12:54:07;28.20;45.80
27671;DHT22;15077;49.704;9.908;2023-07-16T12:56:32;28.20;45.40
27671;DHT22;15077;49.704;9.908;2023-07-16T12:58:58;28.20;45.30
27671;DHT22;15077;49.704;9.908;2023-07-16T13:01:24;28.20;44.80
27671;DHT22;15077;49.704;9.908;2023-07-16T13:03:50;28.20;45.00
27671;DHT22;15077;49.704;9.908;2023-07-16T13:06:16;28.20;45.50
27671;DHT22;15077;49.704;9.908;2023-07-16T13:08:41;28.30;46.00
27671;DHT22;15077;49.704;9.908;2023-07-16T13:11:07;28.30;46.20
27671;DHT22;15077;49.704;9.908;2023-07-16T13:13:33;28.40;46.10
27671;DHT22;15077;49.704;9.908;2023-07-16T13:15:58;28.40;44.30
27671;DHT22;15077;49.704;9.908;2023-07-16T13:18:24;28.40;45.20
27671;DHT22;15077;49.704;9.908;2023-07-16T13:20:50;28.40;45.70
27671;DHT22;15077;49.704;9.908;2023-07-16T13:23:16;28.40;45.70
27671;DHT22;15077;49.704;9.908;2023-07-16T13:25:41;28.50;45.10
27671;DHT22;15077;49.704;9.908;2023-07-16T13:28:07;28.50;44.60
27671;DHT22;15077;49.704;9.908;2023-07-16T13:30:33;28.50;44.00
27671;DHT22;15077;49.704;9.908;2023-07-16T13:32:59;28.50;42.80
27671;DHT22;15077;49.704;9.908;2023-07-16T13:35:26;28.50;43.00
27671;DHT22;15077;49.704;9.908;2023-07-16T13:37:53;28.50;43.30
27671;DHT22;15077;49.704;9.908;2023-07-16T13:40:18;28.60;43.60
27671;DHT22;15077;49.704;9.908;2023-07-16T13:42:48;28.60;43.30
27671;DHT22;15077;49.704;9.908;2023-07-16T13:45:14;28.60;43.20
27671;DHT22;15077;49.704;9.908;2023-07-16T13:47:40;28.70;42.90
27671;DHT22;15077;49.704;9.908;2023-07-16T13:50:06;28.70;42.50
27671;DHT22;15077;49.704;9.908;2023-07-16T13:52:32;28.70;42.70
27671;DHT22;15077;49.704;9.908;2023-07-16T13:54:58;28.80;42.90
27671;DHT22;15077;49.704;9.908;2023-07-16T13:57:23;28.80;42.90
27671;DHT22;15077;49.704;9.908;2023-07-16T13:59:49;28.90;43.10
27671;DHT22;15077;49.704;9.908;2023-07-16T14:02:15;28.90;43.10
27671;DHT22;15077;49.704;9.908;2023-07-16T14:04:41;28.90;41.80
27671;DHT22;15077;49.704;9.908;2023-07-16T14:07:06;28.90;42.10
27671;DHT22;15077;49.704;9.908;2023-07-16T14:09:32;28.90;42.50
27671;DHT22;15077;49.704;9.908;2023-07-16T14:11:58;29.00;42.90
27671;DHT22;15077;49.704;9.908;2023-07-16T14:14:24;29.00;43.00
27671;DHT22;15077;49.704;9.908;2023-07-16T14:16:49;29.10;42.90
27671;DHT22;15077;49.704;9.908;2023-07-16T14:19:15;29.10;42.60
27671;DHT22;15077;49.704;9.908;2023-07-16T14:21:41;29.20;43.10
27671;DHT22;15077;49.704;9.908;2023-07-16T14:24:08;29.20;40.90
27671;DHT22;15077;49.704;9.908;2023-07-16T14:26:34;29.30;42.30
27671;DHT22;15077;49.704;9.908;2023-07-16T14:29:00;29.30;40.90
27671;DHT22;15077;49.704;9.908;2023-07-16T14:31:26;29.30;41.40
27671;DHT22;15077;49.704;9.908;2023-07-16T14:33:51;29.40;40.80
27671;DHT22;15077;49.704;9.908;2023-07-16T14:36:17;29.40;40.50
27671;DHT22;15077;49.704;9.908;2023-07-16T14:38:43;29.40;40.40
27671;DHT22;15077;49.704;9.908;2023-07-16T14:41:09;29.50;40.30
27671;DHT22;15077;49.704;9.908;2023-07-16T14:43:35;29.50;40.20
27671;DHT22;15077;49.704;9.908;2023-07-16T14:46:01;29.50;39.80
27671;DHT22;15077;49.704;9.908;2023-07-16T14:48:28;29.50;39.80
27671;DHT22;15077;49.704;9.908;2023-07-16T14:50:54;29.50;39.70
27671;DHT22;15077;49.704;9.908;2023-07-16T14:53:20;29.50;39.30
27671;DHT22;15077;49.704;9.908;2023-07-16T14:55:52;29.50;39.00
27671;DHT22;15077;49.704;9.908;2023-07-16T14:58:18;29.60;39.30
27671;DHT22;15077;49.704;9.908;2023-07-16T15:00:46;29.60;40.20
27671;DHT22;15077;49.704;9.908;2023-07-16T15:03:12;29.60;38.90
27671;DHT22;15077;49.704;9.908;2023-07-16T15:05:38;29.60;38.70
27671;DHT22;15077;49.704;9.908;2023-07-16T15:08:05;29.70;37.80
27671;DHT22;15077;49.704;9.908;2023-07-16T15:10:32;29.60;37.40
27671;DHT22;15077;49.704;9.908;2023-07-16T15:12:58;29.60;37.60
27671;DHT22;15077;49.704;9.908;2023-07-16T15:15:24;29.60;38.00
27671;DHT22;15077;49.704;9.908;2023-07-16T15:17:50;29.60;37.40
27671;DHT22;15077;49.704;9.908;2023-07-16T15:20:16;29.60;37.10
27671;DHT22;15077;49.704;9.908;2023-07-16T15:22:42;29.60;37.00
27671;DHT22;15077;49.704;9.908;2023-07-16T15:25:09;29.60;37.00
27671;DHT22;15077;49.704;9.908;2023-07-16T15:27:35;29.60;37.40
27671;DHT22;15077;49.704;9.908;2023-07-16T15:30:00;29.60;37.20
27671;DHT22;15077;49.704;9.908;2023-07-16T15:32:26;29.60;37.50
27671;DHT22;15077;49.704;9.908;2023-07-16T15:34:52;29.70;37.40